EDV5050 KLEX-KLGA
Flight info
| Callsign | EDV5050 |
|---|---|
| Flight time | 1h 33m |
| Altitude | 35000 |
| Route | KLEX HYK ZIEBR Q108 SITTR Q34 GVE PROUD2 KLGA |
| Aircraft | CRJ9/M-SDE2E3FGIRW/LB1 |
Departure
| Time | 2026-05-03 23:20 |
|---|---|
| Airport | Blue Grass Airport (KLEX) |
Arrival
| Time | 2026-05-04 00:54 |
|---|---|
| Airport | LaGuardia Airport (KLGA) |
| Time | Latitude | Longitude | Altitude | Speed | Heading |
|---|---|---|---|---|---|
| 2026-05-03 23:06 | 38.03691 | -84.59967 | 949 ft | 0 kts | 200° |
| 2026-05-03 23:13 | 38.03691 | -84.59968 | 950 ft | 0 kts | 205° |
| 2026-05-03 23:13 | 38.03689 | -84.59971 | 950 ft | 0 kts | 244° |
| 2026-05-03 23:13 | 38.03688 | -84.59975 | 949 ft | 0 kts | 275° |
| 2026-05-03 23:14 | 38.03693 | -84.59993 | 949 ft | 8 kts | 289° |
| 2026-05-03 23:14 | 38.03703 | -84.60037 | 950 ft | 5 kts | 277° |
| 2026-05-03 23:14 | 38.03704 | -84.60048 | 950 ft | 0 kts | 277° |
| 2026-05-03 23:14 | 38.03705 | -84.60052 | 950 ft | 2 kts | 277° |
| 2026-05-03 23:15 | 38.03709 | -84.60089 | 947 ft | 5 kts | 282° |
| 2026-05-03 23:15 | 38.03722 | -84.60111 | 949 ft | 4 kts | 331° |
| 2026-05-03 23:15 | 38.03757 | -84.60111 | 949 ft | 6 kts | 19° |
| 2026-05-03 23:15 | 38.03803 | -84.60081 | 949 ft | 9 kts | 36° |
| 2026-05-03 23:16 | 38.03859 | -84.60026 | 951 ft | 12 kts | 40° |
| 2026-05-03 23:16 | 38.03919 | -84.60002 | 950 ft | 6 kts | 333° |
| 2026-05-03 23:16 | 38.03935 | -84.60007 | 951 ft | 4 kts | 1° |
| 2026-05-03 23:16 | 38.03974 | -84.59977 | 952 ft | 7 kts | 40° |
| 2026-05-03 23:17 | 38.04016 | -84.59930 | 952 ft | 9 kts | 41° |
| 2026-05-03 23:17 | 38.04071 | -84.59868 | 954 ft | 12 kts | 42° |
| 2026-05-03 23:17 | 38.04109 | -84.59827 | 955 ft | 8 kts | 28° |
| 2026-05-03 23:17 | 38.04133 | -84.59823 | 956 ft | 0 kts | 342° |
| 2026-05-03 23:18 | 38.04133 | -84.59824 | 956 ft | 1 kts | 342° |
| 2026-05-03 23:18 | 38.04155 | -84.59841 | 956 ft | 8 kts | 312° |
| 2026-05-03 23:19 | 38.04199 | -84.59904 | 956 ft | 4 kts | 296° |
| 2026-05-03 23:19 | 38.04199 | -84.59915 | 955 ft | 2 kts | 236° |
| 2026-05-03 23:19 | 38.04198 | -84.59917 | 955 ft | 0 kts | 221° |
| 2026-05-03 23:20 | 38.04110 | -84.60012 | 954 ft | 54 kts | 221° |
| 2026-05-03 23:20 | 38.03622 | -84.60555 | 945 ft | 128 kts | 221° |
| 2026-05-03 23:20 | 38.02873 | -84.61397 | 1419 ft | 147 kts | 222° |
| 2026-05-03 23:20 | 38.01990 | -84.62014 | 2296 ft | 150 kts | 189° |
| 2026-05-03 23:21 | 38.00915 | -84.61658 | 2901 ft | 179 kts | 150° |
| 2026-05-03 23:21 | 38.00177 | -84.60277 | 3581 ft | 205 kts | 109° |
| 2026-05-03 23:21 | 37.99893 | -84.58541 | 4625 ft | 199 kts | 105° |
| 2026-05-03 23:21 | 37.99622 | -84.56661 | 5072 ft | 234 kts | 103° |
| 2026-05-03 23:22 | 37.98326 | -84.52730 | 6645 ft | 251 kts | 150° |
| 2026-05-03 23:22 | 37.96717 | -84.52069 | 7533 ft | 241 kts | 187° |
| 2026-05-03 23:22 | 37.95019 | -84.51882 | 8407 ft | 258 kts | 165° |
| 2026-05-03 23:23 | 37.93565 | -84.50513 | 9291 ft | 275 kts | 128° |
| 2026-05-03 23:23 | 37.92844 | -84.48263 | 10211 ft | 279 kts | 92° |
| 2026-05-03 23:23 | 37.93099 | -84.45906 | 11078 ft | 265 kts | 59° |
| 2026-05-03 23:23 | 37.93835 | -84.43774 | 11987 ft | 264 kts | 59° |
| 2026-05-03 23:24 | 37.94467 | -84.41591 | 12880 ft | 265 kts | 65° |
| 2026-05-03 23:24 | 37.94930 | -84.39335 | 13792 ft | 264 kts | 73° |
| 2026-05-03 23:24 | 37.95100 | -84.37023 | 14611 ft | 263 kts | 88° |
| 2026-05-03 23:24 | 37.94871 | -84.34750 | 15428 ft | 257 kts | 101° |
| 2026-05-03 23:25 | 37.94431 | -84.32584 | 16165 ft | 251 kts | 103° |
| 2026-05-03 23:25 | 37.93981 | -84.30465 | 16766 ft | 248 kts | 102° |
| 2026-05-03 23:25 | 37.93585 | -84.28347 | 17319 ft | 246 kts | 99° |
| 2026-05-03 23:25 | 37.93257 | -84.26218 | 17771 ft | 248 kts | 98° |
| 2026-05-03 23:26 | 37.92940 | -84.24055 | 18185 ft | 252 kts | 98° |
| 2026-05-03 23:26 | 37.92617 | -84.21856 | 18568 ft | 255 kts | 98° |
| 2026-05-03 23:26 | 37.92265 | -84.19638 | 18940 ft | 258 kts | 99° |
| 2026-05-03 23:26 | 37.91903 | -84.17430 | 19309 ft | 260 kts | 99° |
| 2026-05-03 23:27 | 37.91536 | -84.15152 | 19685 ft | 262 kts | 98° |
| 2026-05-03 23:27 | 37.91174 | -84.12911 | 20056 ft | 264 kts | 99° |
| 2026-05-03 23:27 | 37.90806 | -84.10633 | 20439 ft | 264 kts | 98° |
| 2026-05-03 23:27 | 37.90436 | -84.08347 | 20810 ft | 265 kts | 98° |
| 2026-05-03 23:28 | 37.90065 | -84.06068 | 21184 ft | 264 kts | 98° |
| 2026-05-03 23:28 | 37.89694 | -84.03800 | 21549 ft | 262 kts | 98° |
| 2026-05-03 23:28 | 37.89325 | -84.01501 | 21721 ft | 272 kts | 98° |
| 2026-05-03 23:28 | 37.88932 | -83.99094 | 21849 ft | 285 kts | 98° |
| 2026-05-03 23:29 | 37.88519 | -83.96586 | 21983 ft | 298 kts | 99° |
| 2026-05-03 23:29 | 37.88087 | -83.93966 | 22140 ft | 311 kts | 99° |
| 2026-05-03 23:29 | 37.87635 | -83.91223 | 22311 ft | 325 kts | 99° |
| 2026-05-03 23:29 | 37.87169 | -83.88402 | 22739 ft | 329 kts | 99° |
| 2026-05-03 23:30 | 37.86693 | -83.85546 | 23117 ft | 335 kts | 100° |
| 2026-05-03 23:30 | 37.86137 | -83.82652 | 23491 ft | 342 kts | 103° |
| 2026-05-03 23:30 | 37.85490 | -83.79744 | 23927 ft | 343 kts | 104° |
| 2026-05-03 23:30 | 37.84837 | -83.76843 | 24355 ft | 343 kts | 104° |
| 2026-05-03 23:31 | 37.84216 | -83.73927 | 24783 ft | 342 kts | 103° |
| 2026-05-03 23:31 | 37.83619 | -83.71020 | 25197 ft | 341 kts | 103° |
| 2026-05-03 23:31 | 37.83014 | -83.68124 | 25632 ft | 339 kts | 103° |
| 2026-05-03 23:31 | 37.82416 | -83.65244 | 26066 ft | 337 kts | 103° |
| 2026-05-03 23:32 | 37.81871 | -83.62386 | 26471 ft | 332 kts | 94° |
| 2026-05-03 23:32 | 37.81719 | -83.59511 | 26914 ft | 324 kts | 86° |
| 2026-05-03 23:32 | 37.81712 | -83.56703 | 27345 ft | 316 kts | 84° |
| 2026-05-03 23:32 | 37.81758 | -83.53928 | 27615 ft | 315 kts | 83° |
| 2026-05-03 23:33 | 37.81825 | -83.51167 | 27827 ft | 316 kts | 83° |
| 2026-05-03 23:33 | 37.81889 | -83.48382 | 28025 ft | 316 kts | 84° |
| 2026-05-03 23:33 | 37.81949 | -83.45604 | 28227 ft | 316 kts | 84° |
| 2026-05-03 23:33 | 37.82013 | -83.42858 | 28434 ft | 316 kts | 84° |
| 2026-05-03 23:34 | 37.82073 | -83.40086 | 28619 ft | 316 kts | 84° |
| 2026-05-03 23:34 | 37.82087 | -83.37280 | 28678 ft | 322 kts | 86° |
| 2026-05-03 23:34 | 37.81994 | -83.31530 | 28833 ft | 333 kts | 88° |
| 2026-05-03 23:35 | 37.81904 | -83.25571 | 29025 ft | 345 kts | 88° |
| 2026-05-03 23:35 | 37.81843 | -83.19391 | 29209 ft | 358 kts | 87° |
| 2026-05-03 23:36 | 37.81793 | -83.12945 | 29382 ft | 374 kts | 87° |
| 2026-05-03 23:36 | 37.81776 | -83.09652 | 29682 ft | 373 kts | 88° |
| 2026-05-03 23:36 | 37.81745 | -83.06372 | 30078 ft | 371 kts | 88° |
| 2026-05-03 23:37 | 37.81710 | -83.03125 | 30406 ft | 369 kts | 88° |
| 2026-05-03 23:37 | 37.81675 | -82.99895 | 30706 ft | 366 kts | 88° |
| 2026-05-03 23:37 | 37.81639 | -82.96690 | 31007 ft | 362 kts | 88° |
| 2026-05-03 23:37 | 37.81604 | -82.93531 | 31311 ft | 357 kts | 88° |
| 2026-05-03 23:38 | 37.81564 | -82.90413 | 31602 ft | 352 kts | 88° |
| 2026-05-03 23:38 | 37.81529 | -82.87339 | 31901 ft | 346 kts | 88° |
| 2026-05-03 23:38 | 37.81497 | -82.84333 | 32189 ft | 337 kts | 88° |
| 2026-05-03 23:38 | 37.81462 | -82.81412 | 32470 ft | 328 kts | 88° |
| 2026-05-03 23:39 | 37.81429 | -82.78591 | 32593 ft | 324 kts | 88° |
| 2026-05-03 23:39 | 37.81392 | -82.75744 | 32572 ft | 324 kts | 89° |
| 2026-05-03 23:39 | 37.81310 | -82.70039 | 32537 ft | 324 kts | 88° |
| 2026-05-03 23:40 | 37.81230 | -82.64226 | 31926 ft | 352 kts | 89° |
| 2026-05-03 23:40 | 37.81128 | -82.57965 | 32038 ft | 357 kts | 88° |
| 2026-05-03 23:41 | 37.81083 | -82.54816 | 32166 ft | 359 kts | 89° |
| 2026-05-03 23:41 | 37.81037 | -82.51654 | 32281 ft | 360 kts | 88° |
| 2026-05-03 23:41 | 37.80987 | -82.48484 | 32388 ft | 362 kts | 89° |
| 2026-05-03 23:41 | 37.80937 | -82.45295 | 32497 ft | 364 kts | 89° |
| 2026-05-03 23:42 | 37.80885 | -82.42093 | 32600 ft | 365 kts | 89° |
| 2026-05-03 23:42 | 37.80831 | -82.38874 | 32734 ft | 366 kts | 89° |
| 2026-05-03 23:42 | 37.80780 | -82.35643 | 32861 ft | 368 kts | 89° |
| 2026-05-03 23:42 | 37.80720 | -82.32410 | 32964 ft | 369 kts | 89° |
| 2026-05-03 23:43 | 37.80664 | -82.29153 | 33072 ft | 371 kts | 89° |
| 2026-05-03 23:43 | 37.80610 | -82.25888 | 33209 ft | 372 kts | 89° |
| 2026-05-03 23:43 | 37.80550 | -82.22605 | 33329 ft | 374 kts | 89° |
| 2026-05-03 23:43 | 37.80493 | -82.19317 | 33453 ft | 375 kts | 89° |
| 2026-05-03 23:44 | 37.80430 | -82.16011 | 33578 ft | 376 kts | 89° |
| 2026-05-03 23:44 | 37.80371 | -82.12690 | 33697 ft | 378 kts | 89° |
| 2026-05-03 23:44 | 37.80309 | -82.09407 | 33809 ft | 379 kts | 90° |
| 2026-05-03 23:44 | 37.80245 | -82.06072 | 33924 ft | 380 kts | 89° |
| 2026-05-03 23:45 | 37.80114 | -81.99371 | 34122 ft | 382 kts | 90° |
| 2026-05-03 23:45 | 37.79978 | -81.92623 | 34321 ft | 384 kts | 90° |
| 2026-05-03 23:46 | 37.79909 | -81.89238 | 34431 ft | 386 kts | 89° |
| 2026-05-03 23:46 | 37.79836 | -81.85848 | 34536 ft | 387 kts | 90° |
| 2026-05-03 23:46 | 37.79695 | -81.79039 | 34728 ft | 388 kts | 90° |
| 2026-05-03 23:47 | 37.79536 | -81.72201 | 34932 ft | 390 kts | 90° |
| 2026-05-03 23:47 | 37.79380 | -81.65302 | 35063 ft | 395 kts | 91° |
| 2026-05-03 23:48 | 37.79212 | -81.58280 | 35090 ft | 404 kts | 91° |
| 2026-05-03 23:48 | 37.79045 | -81.51085 | 35095 ft | 414 kts | 91° |
| 2026-05-03 23:49 | 37.78864 | -81.43748 | 35095 ft | 425 kts | 91° |
| 2026-05-03 23:49 | 37.78683 | -81.36174 | 35094 ft | 436 kts | 91° |
| 2026-05-03 23:50 | 37.78519 | -81.29695 | 35093 ft | 445 kts | 91° |
| 2026-05-03 23:50 | 37.78276 | -81.20471 | 35092 ft | 458 kts | 92° |
| 2026-05-03 23:51 | 37.78068 | -81.12326 | 35089 ft | 469 kts | 91° |
| 2026-05-03 23:51 | 37.78527 | -81.04023 | 35089 ft | 478 kts | 80° |
| 2026-05-03 23:52 | 37.79269 | -80.95569 | 35105 ft | 489 kts | 84° |
| 2026-05-03 23:52 | 37.79759 | -80.86921 | 35094 ft | 498 kts | 85° |
| 2026-05-03 23:53 | 37.80291 | -80.78094 | 35103 ft | 507 kts | 84° |
| 2026-05-03 23:53 | 37.80871 | -80.69114 | 35100 ft | 516 kts | 84° |
| 2026-05-03 23:54 | 37.81460 | -80.59983 | 35081 ft | 525 kts | 84° |
| 2026-05-03 23:54 | 37.82051 | -80.50704 | 35091 ft | 533 kts | 84° |
| 2026-05-03 23:55 | 37.82634 | -80.41346 | 35076 ft | 541 kts | 84° |
| 2026-05-03 23:55 | 37.83223 | -80.31809 | 35067 ft | 547 kts | 85° |
| 2026-05-03 23:56 | 37.83804 | -80.22244 | 35065 ft | 541 kts | 84° |
| 2026-05-03 23:56 | 37.84370 | -80.12811 | 35053 ft | 534 kts | 85° |
| 2026-05-03 23:57 | 37.84932 | -80.03501 | 35045 ft | 528 kts | 85° |
| 2026-05-03 23:57 | 37.85463 | -79.94293 | 35054 ft | 522 kts | 85° |
| 2026-05-03 23:58 | 37.85989 | -79.85174 | 35052 ft | 517 kts | 85° |
| 2026-05-03 23:58 | 37.86509 | -79.76057 | 35050 ft | 523 kts | 85° |
| 2026-05-03 23:59 | 37.86995 | -79.66820 | 35037 ft | 531 kts | 86° |
| 2026-05-03 23:59 | 37.87425 | -79.57418 | 35041 ft | 539 kts | 86° |
| 2026-05-04 00:00 | 37.87856 | -79.47894 | 35028 ft | 546 kts | 86° |
| 2026-05-04 00:00 | 37.88288 | -79.38249 | 35020 ft | 551 kts | 86° |
| 2026-05-04 00:01 | 37.88719 | -79.28519 | 35032 ft | 556 kts | 86° |
| 2026-05-04 00:01 | 37.89150 | -79.18769 | 35032 ft | 557 kts | 86° |
| 2026-05-04 00:02 | 37.89575 | -79.09025 | 35029 ft | 550 kts | 86° |
| 2026-05-04 00:02 | 37.89993 | -78.99411 | 35019 ft | 544 kts | 87° |
| 2026-05-04 00:03 | 37.90407 | -78.89889 | 35009 ft | 540 kts | 86° |
| 2026-05-04 00:03 | 37.90750 | -78.81956 | 35012 ft | 536 kts | 86° |
| 2026-05-04 00:04 | 37.91157 | -78.72562 | 35017 ft | 532 kts | 86° |
| 2026-05-04 00:04 | 37.92172 | -78.63368 | 35003 ft | 524 kts | 69° |
| 2026-05-04 00:05 | 37.93583 | -78.59152 | 35016 ft | 515 kts | 56° |
| 2026-05-04 00:05 | 37.95443 | -78.55368 | 35029 ft | 514 kts | 52° |
| 2026-05-04 00:05 | 37.98477 | -78.46976 | 35035 ft | 532 kts | 75° |
| 2026-05-04 00:06 | 37.99049 | -78.42327 | 35043 ft | 537 kts | 86° |
| 2026-05-04 00:06 | 37.99187 | -78.37642 | 35054 ft | 540 kts | 88° |
| 2026-05-04 00:06 | 37.99815 | -78.28043 | 35050 ft | 547 kts | 80° |
| 2026-05-04 00:07 | 38.01070 | -78.18535 | 35049 ft | 553 kts | 80° |
| 2026-05-04 00:07 | 38.01949 | -78.08808 | 35066 ft | 558 kts | 86° |
| 2026-05-04 00:08 | 38.02199 | -78.03994 | 35053 ft | 536 kts | 86° |
| 2026-05-04 00:08 | 38.02447 | -77.99371 | 35016 ft | 515 kts | 85° |
| 2026-05-04 00:08 | 38.02745 | -77.94847 | 34228 ft | 515 kts | 84° |
| 2026-05-04 00:08 | 38.03080 | -77.90314 | 33315 ft | 517 kts | 83° |
| 2026-05-04 00:09 | 38.03399 | -77.85761 | 32292 ft | 520 kts | 84° |
| 2026-05-04 00:09 | 38.03706 | -77.81186 | 31266 ft | 522 kts | 83° |
| 2026-05-04 00:09 | 38.04022 | -77.76593 | 30308 ft | 523 kts | 83° |
| 2026-05-04 00:09 | 38.04332 | -77.71994 | 29232 ft | 522 kts | 83° |
| 2026-05-04 00:10 | 38.04637 | -77.67410 | 28153 ft | 521 kts | 83° |
| 2026-05-04 00:10 | 38.04939 | -77.62875 | 27519 ft | 510 kts | 83° |
| 2026-05-04 00:10 | 38.05231 | -77.58455 | 27269 ft | 492 kts | 83° |
| 2026-05-04 00:10 | 38.05517 | -77.54168 | 27118 ft | 492 kts | 83° |
| 2026-05-04 00:11 | 38.05810 | -77.49781 | 27087 ft | 504 kts | 83° |
| 2026-05-04 00:11 | 38.06102 | -77.45313 | 27073 ft | 512 kts | 83° |
| 2026-05-04 00:11 | 38.06387 | -77.40825 | 27058 ft | 509 kts | 83° |
| 2026-05-04 00:11 | 38.06678 | -77.36357 | 27061 ft | 507 kts | 83° |
| 2026-05-04 00:12 | 38.06963 | -77.31910 | 27047 ft | 505 kts | 83° |
| 2026-05-04 00:12 | 38.07242 | -77.27465 | 27050 ft | 503 kts | 83° |
| 2026-05-04 00:12 | 38.07522 | -77.23049 | 27050 ft | 501 kts | 83° |
| 2026-05-04 00:12 | 38.07798 | -77.18646 | 27044 ft | 499 kts | 83° |
| 2026-05-04 00:13 | 38.08073 | -77.14238 | 27055 ft | 506 kts | 83° |
| 2026-05-04 00:13 | 38.08355 | -77.09735 | 27063 ft | 516 kts | 83° |
| 2026-05-04 00:13 | 38.08637 | -77.05147 | 27069 ft | 525 kts | 83° |
| 2026-05-04 00:13 | 38.09049 | -77.00510 | 27052 ft | 531 kts | 74° |
| 2026-05-04 00:14 | 38.10201 | -76.96116 | 27062 ft | 523 kts | 60° |
| 2026-05-04 00:14 | 38.11838 | -76.91995 | 27077 ft | 521 kts | 57° |
| 2026-05-04 00:14 | 38.13498 | -76.87897 | 27066 ft | 524 kts | 59° |
| 2026-05-04 00:14 | 38.15005 | -76.83676 | 27117 ft | 527 kts | 62° |
| 2026-05-04 00:15 | 38.16415 | -76.79363 | 27088 ft | 529 kts | 63° |
| 2026-05-04 00:15 | 38.17803 | -76.75103 | 27068 ft | 525 kts | 62° |
| 2026-05-04 00:15 | 38.19215 | -76.70839 | 27054 ft | 521 kts | 61° |
| 2026-05-04 00:15 | 38.20658 | -76.66635 | 27049 ft | 517 kts | 61° |
| 2026-05-04 00:16 | 38.22081 | -76.62459 | 27051 ft | 513 kts | 61° |
| 2026-05-04 00:16 | 38.23492 | -76.58294 | 27039 ft | 510 kts | 61° |
| 2026-05-04 00:16 | 38.24901 | -76.54156 | 27035 ft | 507 kts | 61° |
| 2026-05-04 00:16 | 38.26294 | -76.50049 | 27045 ft | 505 kts | 61° |
| 2026-05-04 00:17 | 38.27677 | -76.45964 | 27039 ft | 502 kts | 61° |
| 2026-05-04 00:17 | 38.29313 | -76.42090 | 27023 ft | 488 kts | 46° |
| 2026-05-04 00:17 | 38.31553 | -76.38952 | 27043 ft | 471 kts | 33° |
| 2026-05-04 00:17 | 38.34078 | -76.36382 | 27073 ft | 461 kts | 27° |
| 2026-05-04 00:18 | 38.36697 | -76.34026 | 27056 ft | 463 kts | 26° |
| 2026-05-04 00:18 | 38.39324 | -76.31669 | 27055 ft | 474 kts | 27° |
| 2026-05-04 00:18 | 38.41995 | -76.29127 | 27056 ft | 485 kts | 29° |
| 2026-05-04 00:18 | 38.44688 | -76.26452 | 27070 ft | 495 kts | 30° |
| 2026-05-04 00:19 | 38.47428 | -76.23747 | 27074 ft | 500 kts | 29° |
| 2026-05-04 00:19 | 38.50182 | -76.21048 | 27057 ft | 497 kts | 29° |
| 2026-05-04 00:19 | 38.52914 | -76.18365 | 27049 ft | 493 kts | 29° |
| 2026-05-04 00:19 | 38.55621 | -76.15704 | 27066 ft | 489 kts | 29° |
| 2026-05-04 00:20 | 38.58309 | -76.13064 | 27046 ft | 486 kts | 29° |
| 2026-05-04 00:20 | 38.60984 | -76.10441 | 27039 ft | 482 kts | 28° |
| 2026-05-04 00:20 | 38.63642 | -76.07840 | 27036 ft | 479 kts | 28° |
| 2026-05-04 00:20 | 38.66292 | -76.05259 | 27037 ft | 476 kts | 28° |
| 2026-05-04 00:21 | 38.68946 | -76.02757 | 27028 ft | 472 kts | 27° |
| 2026-05-04 00:21 | 38.71592 | -76.00298 | 27027 ft | 470 kts | 27° |
| 2026-05-04 00:21 | 38.74231 | -75.97830 | 27062 ft | 468 kts | 27° |
| 2026-05-04 00:21 | 38.76841 | -75.95381 | 27044 ft | 458 kts | 27° |
| 2026-05-04 00:22 | 38.79343 | -75.93037 | 27023 ft | 434 kts | 26° |
| 2026-05-04 00:22 | 38.81745 | -75.90792 | 26436 ft | 427 kts | 26° |
| 2026-05-04 00:22 | 38.84173 | -75.88554 | 25421 ft | 431 kts | 26° |
| 2026-05-04 00:22 | 38.86617 | -75.86316 | 24674 ft | 429 kts | 26° |
| 2026-05-04 00:23 | 38.89014 | -75.84091 | 24324 ft | 428 kts | 27° |
| 2026-05-04 00:23 | 38.91480 | -75.81792 | 24174 ft | 446 kts | 27° |
| 2026-05-04 00:23 | 38.93999 | -75.79431 | 24142 ft | 461 kts | 28° |
| 2026-05-04 00:23 | 38.96623 | -75.76949 | 24102 ft | 475 kts | 29° |
| 2026-05-04 00:24 | 38.99301 | -75.74370 | 24070 ft | 486 kts | 29° |
| 2026-05-04 00:24 | 39.02044 | -75.71771 | 24055 ft | 488 kts | 29° |
| 2026-05-04 00:24 | 39.04750 | -75.69210 | 24039 ft | 479 kts | 28° |
| 2026-05-04 00:24 | 39.07418 | -75.66687 | 24017 ft | 471 kts | 28° |
| 2026-05-04 00:25 | 39.10041 | -75.64214 | 24007 ft | 465 kts | 28° |
| 2026-05-04 00:25 | 39.12629 | -75.61759 | 24003 ft | 459 kts | 28° |
| 2026-05-04 00:25 | 39.15197 | -75.59327 | 24014 ft | 454 kts | 28° |
| 2026-05-04 00:25 | 39.17717 | -75.56918 | 24008 ft | 449 kts | 29° |
| 2026-05-04 00:26 | 39.20175 | -75.54566 | 23550 ft | 436 kts | 28° |
| 2026-05-04 00:26 | 39.22622 | -75.52251 | 22434 ft | 437 kts | 28° |
| 2026-05-04 00:26 | 39.25083 | -75.49941 | 21363 ft | 437 kts | 29° |
| 2026-05-04 00:26 | 39.27565 | -75.47680 | 20339 ft | 435 kts | 28° |
| 2026-05-04 00:27 | 39.30047 | -75.45483 | 19610 ft | 427 kts | 28° |
| 2026-05-04 00:27 | 39.32421 | -75.43368 | 19275 ft | 411 kts | 28° |
| 2026-05-04 00:27 | 39.34726 | -75.41326 | 19202 ft | 391 kts | 28° |
| 2026-05-04 00:27 | 39.36962 | -75.39340 | 18340 ft | 393 kts | 28° |
| 2026-05-04 00:28 | 39.39224 | -75.37336 | 17597 ft | 391 kts | 28° |
| 2026-05-04 00:28 | 39.41424 | -75.35369 | 17281 ft | 378 kts | 28° |
| 2026-05-04 00:28 | 39.43546 | -75.33472 | 17147 ft | 361 kts | 28° |
| 2026-05-04 00:28 | 39.45572 | -75.31664 | 17081 ft | 345 kts | 28° |
| 2026-05-04 00:29 | 39.47505 | -75.29939 | 17053 ft | 330 kts | 27° |
| 2026-05-04 00:29 | 39.49360 | -75.28286 | 17035 ft | 317 kts | 27° |
| 2026-05-04 00:29 | 39.51168 | -75.26682 | 17035 ft | 317 kts | 27° |
| 2026-05-04 00:29 | 39.52993 | -75.25053 | 17064 ft | 321 kts | 28° |
| 2026-05-04 00:30 | 39.54824 | -75.23369 | 17067 ft | 325 kts | 29° |
| 2026-05-04 00:30 | 39.56663 | -75.21641 | 17072 ft | 328 kts | 29° |
| 2026-05-04 00:30 | 39.58522 | -75.19897 | 17074 ft | 331 kts | 29° |
| 2026-05-04 00:30 | 39.60398 | -75.18135 | 17079 ft | 334 kts | 29° |
| 2026-05-04 00:31 | 39.62290 | -75.16368 | 17075 ft | 337 kts | 29° |
| 2026-05-04 00:31 | 39.64176 | -75.14602 | 17073 ft | 342 kts | 29° |
| 2026-05-04 00:31 | 39.66209 | -75.12709 | 17088 ft | 368 kts | 30° |
| 2026-05-04 00:31 | 39.68341 | -75.10744 | 17106 ft | 392 kts | 30° |
| 2026-05-04 00:32 | 39.70636 | -75.08667 | 17033 ft | 390 kts | 29° |
| 2026-05-04 00:32 | 39.72854 | -75.06713 | 16033 ft | 392 kts | 28° |
| 2026-05-04 00:32 | 39.75138 | -75.04758 | 15033 ft | 393 kts | 28° |
| 2026-05-04 00:32 | 39.77414 | -75.02797 | 14090 ft | 393 kts | 29° |
| 2026-05-04 00:33 | 39.79667 | -75.00847 | 13516 ft | 382 kts | 29° |
| 2026-05-04 00:33 | 39.84037 | -74.97081 | 13142 ft | 396 kts | 29° |
| 2026-05-04 00:33 | 39.86341 | -74.94967 | 13112 ft | 408 kts | 34° |
| 2026-05-04 00:34 | 39.88518 | -74.92570 | 13094 ft | 411 kts | 37° |
| 2026-05-04 00:34 | 39.90617 | -74.90119 | 13075 ft | 393 kts | 38° |
| 2026-05-04 00:34 | 39.92591 | -74.87802 | 12660 ft | 375 kts | 37° |
| 2026-05-04 00:34 | 39.94546 | -74.85563 | 11780 ft | 372 kts | 36° |
| 2026-05-04 00:35 | 39.96470 | -74.83401 | 11365 ft | 357 kts | 36° |
| 2026-05-04 00:35 | 39.98273 | -74.81226 | 11180 ft | 357 kts | 40° |
| 2026-05-04 00:35 | 40.00009 | -74.78836 | 11124 ft | 369 kts | 43° |
| 2026-05-04 00:35 | 40.01740 | -74.76295 | 11085 ft | 378 kts | 44° |
| 2026-05-04 00:36 | 40.03496 | -74.73726 | 11054 ft | 377 kts | 44° |
| 2026-05-04 00:36 | 40.05184 | -74.71239 | 10574 ft | 362 kts | 44° |
| 2026-05-04 00:36 | 40.06815 | -74.68824 | 10281 ft | 345 kts | 44° |
| 2026-05-04 00:36 | 40.08373 | -74.66556 | 10115 ft | 325 kts | 42° |
| 2026-05-04 00:37 | 40.09846 | -74.64426 | 10058 ft | 307 kts | 42° |
| 2026-05-04 00:37 | 40.11306 | -74.62343 | 10033 ft | 315 kts | 42° |
| 2026-05-04 00:37 | 40.12802 | -74.60196 | 10035 ft | 324 kts | 42° |
| 2026-05-04 00:37 | 40.14312 | -74.58022 | 10040 ft | 330 kts | 43° |
| 2026-05-04 00:38 | 40.15870 | -74.55773 | 10041 ft | 339 kts | 43° |
| 2026-05-04 00:38 | 40.17534 | -74.53383 | 10059 ft | 366 kts | 43° |
| 2026-05-04 00:38 | 40.19235 | -74.50958 | 10065 ft | 357 kts | 43° |
| 2026-05-04 00:38 | 40.20908 | -74.48620 | 10044 ft | 349 kts | 41° |
| 2026-05-04 00:39 | 40.22620 | -74.46402 | 10049 ft | 342 kts | 39° |
| 2026-05-04 00:39 | 40.24335 | -74.44274 | 10041 ft | 337 kts | 38° |
| 2026-05-04 00:39 | 40.25987 | -74.42196 | 10026 ft | 319 kts | 39° |
| 2026-05-04 00:39 | 40.27598 | -74.40175 | 9026 ft | 327 kts | 38° |
| 2026-05-04 00:40 | 40.29278 | -74.38094 | 7989 ft | 335 kts | 38° |
| 2026-05-04 00:40 | 40.30983 | -74.35988 | 6986 ft | 340 kts | 38° |
| 2026-05-04 00:40 | 40.32701 | -74.33853 | 6025 ft | 343 kts | 39° |
| 2026-05-04 00:40 | 40.34398 | -74.31712 | 5469 ft | 331 kts | 40° |
| 2026-05-04 00:41 | 40.36000 | -74.29660 | 5217 ft | 312 kts | 40° |
| 2026-05-04 00:41 | 40.37544 | -74.27674 | 5103 ft | 324 kts | 39° |
| 2026-05-04 00:41 | 40.39284 | -74.25485 | 5071 ft | 368 kts | 39° |
| 2026-05-04 00:41 | 40.41093 | -74.23211 | 5062 ft | 354 kts | 40° |
| 2026-05-04 00:42 | 40.42840 | -74.20997 | 5041 ft | 345 kts | 40° |
| 2026-05-04 00:42 | 40.44542 | -74.18821 | 5029 ft | 338 kts | 40° |
| 2026-05-04 00:42 | 40.46192 | -74.16725 | 5017 ft | 331 kts | 40° |
| 2026-05-04 00:42 | 40.47855 | -74.14601 | 5016 ft | 326 kts | 40° |
| 2026-05-04 00:43 | 40.49472 | -74.12540 | 5011 ft | 322 kts | 39° |
| 2026-05-04 00:43 | 40.51056 | -74.10534 | 4994 ft | 318 kts | 39° |
| 2026-05-04 00:43 | 40.52696 | -74.08626 | 5013 ft | 312 kts | 32° |
| 2026-05-04 00:43 | 40.54464 | -74.07021 | 5015 ft | 307 kts | 28° |
| 2026-05-04 00:44 | 40.56268 | -74.05528 | 5015 ft | 305 kts | 26° |
| 2026-05-04 00:44 | 40.58074 | -74.04083 | 5018 ft | 303 kts | 26° |
| 2026-05-04 00:44 | 40.59872 | -74.02641 | 5018 ft | 302 kts | 26° |
| 2026-05-04 00:44 | 40.61616 | -74.01109 | 5005 ft | 305 kts | 36° |
| 2026-05-04 00:45 | 40.62856 | -73.98908 | 5007 ft | 294 kts | 61° |
| 2026-05-04 00:45 | 40.63553 | -73.96406 | 4431 ft | 298 kts | 71° |
| 2026-05-04 00:45 | 40.64008 | -73.93669 | 3419 ft | 314 kts | 77° |
| 2026-05-04 00:45 | 40.64235 | -73.91769 | 2853 ft | 318 kts | 80° |
| 2026-05-04 00:46 | 40.64528 | -73.88906 | 2379 ft | 310 kts | 80° |
| 2026-05-04 00:46 | 40.64805 | -73.86154 | 2162 ft | 294 kts | 81° |
| 2026-05-04 00:46 | 40.65085 | -73.83590 | 2112 ft | 268 kts | 79° |
| 2026-05-04 00:46 | 40.65364 | -73.81307 | 2071 ft | 239 kts | 78° |
| 2026-05-04 00:47 | 40.65633 | -73.79268 | 2008 ft | 215 kts | 77° |
| 2026-05-04 00:47 | 40.65877 | -73.77416 | 1972 ft | 195 kts | 77° |
| 2026-05-04 00:47 | 40.66091 | -73.75784 | 1959 ft | 167 kts | 76° |
| 2026-05-04 00:47 | 40.66275 | -73.74383 | 1796 ft | 148 kts | 76° |
| 2026-05-04 00:48 | 40.66495 | -73.72861 | 1711 ft | 184 kts | 76° |
| 2026-05-04 00:48 | 40.66731 | -73.71154 | 2186 ft | 191 kts | 76° |
| 2026-05-04 00:48 | 40.66993 | -73.69428 | 2274 ft | 198 kts | 68° |
| 2026-05-04 00:48 | 40.67744 | -73.68020 | 2023 ft | 183 kts | 29° |
| 2026-05-04 00:49 | 40.68871 | -73.67636 | 1795 ft | 158 kts | 343° |
| 2026-05-04 00:49 | 40.69670 | -73.68341 | 1697 ft | 131 kts | 293° |
| 2026-05-04 00:49 | 40.69959 | -73.69405 | 1699 ft | 118 kts | 288° |
| 2026-05-04 00:49 | 40.70230 | -73.70346 | 1653 ft | 104 kts | 289° |
| 2026-05-04 00:50 | 40.70517 | -73.71238 | 1640 ft | 97 kts | 292° |
| 2026-05-04 00:50 | 40.70848 | -73.72137 | 1610 ft | 116 kts | 295° |
| 2026-05-04 00:50 | 40.71214 | -73.73009 | 1698 ft | 106 kts | 296° |
| 2026-05-04 00:50 | 40.71598 | -73.73874 | 1708 ft | 105 kts | 297° |
| 2026-05-04 00:51 | 40.71992 | -73.74734 | 1734 ft | 120 kts | 298° |
| 2026-05-04 00:51 | 40.72417 | -73.75648 | 1752 ft | 123 kts | 298° |
| 2026-05-04 00:51 | 40.72883 | -73.76631 | 1793 ft | 130 kts | 299° |
| 2026-05-04 00:51 | 40.73322 | -73.77564 | 1665 ft | 117 kts | 298° |
| 2026-05-04 00:52 | 40.73765 | -73.78536 | 1465 ft | 124 kts | 299° |
| 2026-05-04 00:52 | 40.74218 | -73.79492 | 1254 ft | 121 kts | 300° |
| 2026-05-04 00:52 | 40.74646 | -73.80400 | 950 ft | 125 kts | 299° |
| 2026-05-04 00:52 | 40.75143 | -73.81427 | 860 ft | 132 kts | 301° |
| 2026-05-04 00:53 | 40.75649 | -73.82480 | 667 ft | 139 kts | 302° |
| 2026-05-04 00:53 | 40.76151 | -73.83510 | 470 ft | 132 kts | 301° |
| 2026-05-04 00:53 | 40.76640 | -73.84540 | 279 ft | 134 kts | 302° |
| 2026-05-04 00:53 | 40.77116 | -73.85541 | 107 ft | 125 kts | 303° |
| 2026-05-04 00:54 | 40.77500 | -73.86331 | 11 ft | 73 kts | 300° |
| 2026-05-04 00:54 | 40.77721 | -73.86785 | 11 ft | 40 kts | 304° |
| 2026-05-04 00:54 | 40.77803 | -73.87006 | 15 ft | 19 kts | 282° |
| 2026-05-04 00:54 | 40.77818 | -73.87113 | 14 ft | 14 kts | 277° |
| 2026-05-04 00:55 | 40.77821 | -73.87186 | 14 ft | 0 kts | 271° |
| 2026-05-04 00:56 | 40.77821 | -73.87204 | 14 ft | 4 kts | 271° |
| 2026-05-04 00:56 | 40.77818 | -73.87247 | 17 ft | 5 kts | 238° |
| 2026-05-04 00:56 | 40.77790 | -73.87272 | 16 ft | 5 kts | 192° |
| 2026-05-04 00:57 | 40.77768 | -73.87259 | 16 ft | 4 kts | 137° |
| 2026-05-04 00:57 | 40.77758 | -73.87237 | 16 ft | 4 kts | 121° |
| 2026-05-04 00:57 | 40.77739 | -73.87196 | 17 ft | 7 kts | 121° |
| 2026-05-04 00:57 | 40.77707 | -73.87129 | 16 ft | 11 kts | 122° |
| 2026-05-04 00:58 | 40.77658 | -73.87027 | 14 ft | 16 kts | 122° |
| 2026-05-04 00:58 | 40.77588 | -73.86880 | 10 ft | 20 kts | 122° |
| 2026-05-04 00:58 | 40.77510 | -73.86738 | 8 ft | 18 kts | 127° |
| 2026-05-04 00:58 | 40.77435 | -73.86584 | 9 ft | 21 kts | 122° |
| 2026-05-04 00:59 | 40.77361 | -73.86429 | 9 ft | 20 kts | 122° |
| 2026-05-04 00:59 | 40.77287 | -73.86274 | 12 ft | 20 kts | 122° |
| 2026-05-04 00:59 | 40.77218 | -73.86129 | 12 ft | 19 kts | 122° |
| 2026-05-04 00:59 | 40.77157 | -73.86015 | 12 ft | 9 kts | 154° |
| 2026-05-04 01:00 | 40.77092 | -73.86038 | 11 ft | 9 kts | 178° |
| 2026-05-04 01:00 | 40.77065 | -73.86024 | 10 ft | 2 kts | 133° |
| 2026-05-04 01:00 | 40.77054 | -73.86001 | 10 ft | 5 kts | 123° |
| 2026-05-04 01:00 | 40.77027 | -73.85948 | 9 ft | 9 kts | 123° |
| 2026-05-04 01:01 | 40.76973 | -73.85892 | 9 ft | 10 kts | 178° |
| 2026-05-04 01:01 | 40.76928 | -73.85910 | 11 ft | 0 kts | 210° |
| 2026-05-04 01:01 | 40.76926 | -73.85911 | 11 ft | 3 kts | 201° |
| 2026-05-04 01:01 | 40.76906 | -73.85909 | 12 ft | 0 kts | 134° |
| 2026-05-04 01:02 | 40.76895 | -73.85896 | 12 ft | 3 kts | 135° |
| 2026-05-04 01:02 | 40.76891 | -73.85890 | 12 ft | 0 kts | 134° |